sensor_id;sensor_type;location;lat;lon;timestamp;P1;durP1;ratioP1;P2;durP2;ratioP2
19255;SDS011;9762;52.490;13.410;2024-01-27T00:01:31;17.73;;;3.97;;
19255;SDS011;9762;52.490;13.410;2024-01-27T00:03:57;14.10;;;3.57;;
19255;SDS011;9762;52.490;13.410;2024-01-27T00:06:23;11.67;;;3.47;;
19255;SDS011;9762;52.490;13.410;2024-01-27T00:08:49;14.90;;;4.13;;
19255;SDS011;9762;52.490;13.410;2024-01-27T00:11:14;17.27;;;3.73;;
19255;SDS011;9762;52.490;13.410;2024-01-27T00:13:40;16.47;;;3.70;;
19255;SDS011;9762;52.490;13.410;2024-01-27T00:16:06;20.50;;;4.30;;
19255;SDS011;9762;52.490;13.410;2024-01-27T00:18:32;14.20;;;3.67;;
19255;SDS011;9762;52.490;13.410;2024-01-27T00:21:00;14.53;;;3.70;;
19255;SDS011;9762;52.490;13.410;2024-01-27T00:23:26;16.70;;;4.07;;
19255;SDS011;9762;52.490;13.410;2024-01-27T00:25:51;19.37;;;3.80;;
19255;SDS011;9762;52.490;13.410;2024-01-27T00:28:17;15.73;;;4.00;;
19255;SDS011;9762;52.490;13.410;2024-01-27T00:30:43;11.30;;;3.80;;
19255;SDS011;9762;52.490;13.410;2024-01-27T00:33:09;16.47;;;3.70;;
19255;SDS011;9762;52.490;13.410;2024-01-27T00:35:34;10.70;;;3.20;;
19255;SDS011;9762;52.490;13.410;2024-01-27T00:38:00;5.33;;;2.80;;
19255;SDS011;9762;52.490;13.410;2024-01-27T00:40:26;18.07;;;4.47;;
19255;SDS011;9762;52.490;13.410;2024-01-27T00:42:51;18.43;;;3.73;;
19255;SDS011;9762;52.490;13.410;2024-01-27T00:45:17;12.60;;;3.07;;
19255;SDS011;9762;52.490;13.410;2024-01-27T00:47:43;17.77;;;3.60;;
19255;SDS011;9762;52.490;13.410;2024-01-27T00:50:09;19.23;;;4.07;;
19255;SDS011;9762;52.490;13.410;2024-01-27T00:52:35;11.07;;;3.20;;
19255;SDS011;9762;52.490;13.410;2024-01-27T00:55:00;19.83;;;3.67;;
19255;SDS011;9762;52.490;13.410;2024-01-27T00:57:26;11.17;;;3.30;;
19255;SDS011;9762;52.490;13.410;2024-01-27T00:59:52;18.00;;;4.03;;
19255;SDS011;9762;52.490;13.410;2024-01-27T01:02:17;14.80;;;3.90;;
19255;SDS011;9762;52.490;13.410;2024-01-27T01:04:43;16.40;;;4.63;;
19255;SDS011;9762;52.490;13.410;2024-01-27T01:07:10;17.67;;;3.97;;
19255;SDS011;9762;52.490;13.410;2024-01-27T01:09:35;14.03;;;3.60;;
19255;SDS011;9762;52.490;13.410;2024-01-27T01:12:01;17.60;;;3.40;;
19255;SDS011;9762;52.490;13.410;2024-01-27T01:14:27;12.13;;;4.03;;
19255;SDS011;9762;52.490;13.410;2024-01-27T01:16:52;15.67;;;4.00;;
19255;SDS011;9762;52.490;13.410;2024-01-27T01:19:18;16.73;;;4.07;;
19255;SDS011;9762;52.490;13.410;2024-01-27T01:21:44;11.20;;;3.40;;
19255;SDS011;9762;52.490;13.410;2024-01-27T01:24:09;12.97;;;3.70;;
19255;SDS011;9762;52.490;13.410;2024-01-27T01:26:35;16.97;;;4.30;;
19255;SDS011;9762;52.490;13.410;2024-01-27T01:29:01;14.87;;;4.03;;
19255;SDS011;9762;52.490;13.410;2024-01-27T01:31:26;15.53;;;3.47;;
19255;SDS011;9762;52.490;13.410;2024-01-27T01:33:52;15.80;;;3.97;;
19255;SDS011;9762;52.490;13.410;2024-01-27T01:36:18;16.57;;;4.17;;
19255;SDS011;9762;52.490;13.410;2024-01-27T01:38:43;12.73;;;4.07;;
19255;SDS011;9762;52.490;13.410;2024-01-27T01:41:09;14.97;;;3.77;;
19255;SDS011;9762;52.490;13.410;2024-01-27T01:43:35;18.57;;;4.30;;
19255;SDS011;9762;52.490;13.410;2024-01-27T01:46:01;15.70;;;4.23;;
19255;SDS011;9762;52.490;13.410;2024-01-27T01:48:26;16.57;;;4.03;;
19255;SDS011;9762;52.490;13.410;2024-01-27T01:50:52;17.40;;;4.57;;
19255;SDS011;9762;52.490;13.410;2024-01-27T01:53:18;15.07;;;4.23;;
19255;SDS011;9762;52.490;13.410;2024-01-27T01:55:44;19.13;;;4.00;;
19255;SDS011;9762;52.490;13.410;2024-01-27T01:58:11;19.83;;;4.43;;
19255;SDS011;9762;52.490;13.410;2024-01-27T02:00:37;17.60;;;3.67;;
19255;SDS011;9762;52.490;13.410;2024-01-27T02:03:02;15.83;;;5.00;;
19255;SDS011;9762;52.490;13.410;2024-01-27T02:05:28;17.30;;;3.67;;
19255;SDS011;9762;52.490;13.410;2024-01-27T02:07:54;21.47;;;4.30;;
19255;SDS011;9762;52.490;13.410;2024-01-27T02:10:21;12.30;;;3.70;;
19255;SDS011;9762;52.490;13.410;2024-01-27T02:12:47;22.80;;;4.10;;
19255;SDS011;9762;52.490;13.410;2024-01-27T02:15:13;21.27;;;4.77;;
19255;SDS011;9762;52.490;13.410;2024-01-27T02:17:39;13.30;;;4.13;;
19255;SDS011;9762;52.490;13.410;2024-01-27T02:20:05;13.97;;;3.67;;
19255;SDS011;9762;52.490;13.410;2024-01-27T02:22:32;20.43;;;4.57;;
19255;SDS011;9762;52.490;13.410;2024-01-27T02:25:04;24.60;;;4.60;;
19255;SDS011;9762;52.490;13.410;2024-01-27T02:27:30;18.03;;;4.00;;
19255;SDS011;9762;52.490;13.410;2024-01-27T02:29:56;16.60;;;3.53;;
19255;SDS011;9762;52.490;13.410;2024-01-27T02:32:21;24.63;;;4.80;;
19255;SDS011;9762;52.490;13.410;2024-01-27T02:34:47;16.60;;;3.20;;
19255;SDS011;9762;52.490;13.410;2024-01-27T02:37:13;19.70;;;4.27;;
19255;SDS011;9762;52.490;13.410;2024-01-27T02:39:39;19.80;;;4.57;;
19255;SDS011;9762;52.490;13.410;2024-01-27T02:42:05;13.13;;;3.97;;
19255;SDS011;9762;52.490;13.410;2024-01-27T02:44:31;13.73;;;4.03;;
19255;SDS011;9762;52.490;13.410;2024-01-27T02:46:57;20.90;;;4.70;;
19255;SDS011;9762;52.490;13.410;2024-01-27T02:49:22;16.10;;;4.33;;
19255;SDS011;9762;52.490;13.410;2024-01-27T02:51:48;18.43;;;4.03;;
19255;SDS011;9762;52.490;13.410;2024-01-27T02:54:14;15.10;;;3.80;;
19255;SDS011;9762;52.490;13.410;2024-01-27T02:56:40;23.27;;;3.70;;
19255;SDS011;9762;52.490;13.410;2024-01-27T02:59:05;14.90;;;3.37;;
19255;SDS011;9762;52.490;13.410;2024-01-27T03:01:31;14.53;;;3.47;;
19255;SDS011;9762;52.490;13.410;2024-01-27T03:03:57;19.97;;;4.53;;
19255;SDS011;9762;52.490;13.410;2024-01-27T03:06:22;18.33;;;3.70;;
19255;SDS011;9762;52.490;13.410;2024-01-27T03:08:48;18.47;;;4.07;;
19255;SDS011;9762;52.490;13.410;2024-01-27T03:11:14;10.83;;;3.43;;
19255;SDS011;9762;52.490;13.410;2024-01-27T03:13:39;18.47;;;4.03;;
19255;SDS011;9762;52.490;13.410;2024-01-27T03:16:10;15.07;;;3.43;;
19255;SDS011;9762;52.490;13.410;2024-01-27T03:18:35;20.17;;;3.63;;
19255;SDS011;9762;52.490;13.410;2024-01-27T03:21:02;11.87;;;2.80;;
19255;SDS011;9762;52.490;13.410;2024-01-27T03:23:28;12.70;;;3.73;;
19255;SDS011;9762;52.490;13.410;2024-01-27T03:25:53;15.20;;;4.20;;
19255;SDS011;9762;52.490;13.410;2024-01-27T03:28:19;13.77;;;3.20;;
19255;SDS011;9762;52.490;13.410;2024-01-27T03:30:45;14.80;;;3.40;;
19255;SDS011;9762;52.490;13.410;2024-01-27T03:33:11;17.63;;;4.03;;
19255;SDS011;9762;52.490;13.410;2024-01-27T03:35:37;20.33;;;4.33;;
19255;SDS011;9762;52.490;13.410;2024-01-27T03:38:07;14.93;;;4.10;;
19255;SDS011;9762;52.490;13.410;2024-01-27T03:40:33;19.57;;;5.00;;
19255;SDS011;9762;52.490;13.410;2024-01-27T03:42:59;17.87;;;3.83;;
19255;SDS011;9762;52.490;13.410;2024-01-27T03:45:25;11.30;;;3.40;;
19255;SDS011;9762;52.490;13.410;2024-01-27T03:47:50;18.80;;;3.97;;
19255;SDS011;9762;52.490;13.410;2024-01-27T03:50:16;17.03;;;3.97;;
19255;SDS011;9762;52.490;13.410;2024-01-27T03:52:42;13.63;;;3.23;;
19255;SDS011;9762;52.490;13.410;2024-01-27T03:55:08;18.57;;;4.13;;
19255;SDS011;9762;52.490;13.410;2024-01-27T03:57:33;14.80;;;4.20;;
19255;SDS011;9762;52.490;13.410;2024-01-27T03:59:59;17.07;;;4.07;;
19255;SDS011;9762;52.490;13.410;2024-01-27T04:02:25;21.07;;;4.63;;
19255;SDS011;9762;52.490;13.410;2024-01-27T04:04:50;18.60;;;4.10;;
19255;SDS011;9762;52.490;13.410;2024-01-27T04:07:16;14.17;;;3.50;;
19255;SDS011;9762;52.490;13.410;2024-01-27T04:09:41;23.13;;;4.33;;
19255;SDS011;9762;52.490;13.410;2024-01-27T04:12:07;16.97;;;4.10;;
19255;SDS011;9762;52.490;13.410;2024-01-27T04:14:32;12.20;;;3.30;;
19255;SDS011;9762;52.490;13.410;2024-01-27T04:16:58;20.27;;;4.17;;
19255;SDS011;9762;52.490;13.410;2024-01-27T04:19:24;18.83;;;4.30;;
19255;SDS011;9762;52.490;13.410;2024-01-27T04:21:49;17.50;;;4.37;;
19255;SDS011;9762;52.490;13.410;2024-01-27T04:24:15;18.87;;;4.17;;
19255;SDS011;9762;52.490;13.410;2024-01-27T04:26:41;17.47;;;3.70;;
19255;SDS011;9762;52.490;13.410;2024-01-27T04:29:06;20.13;;;4.47;;
19255;SDS011;9762;52.490;13.410;2024-01-27T04:31:33;15.53;;;4.00;;
19255;SDS011;9762;52.490;13.410;2024-01-27T04:33:59;13.90;;;3.23;;
19255;SDS011;9762;52.490;13.410;2024-01-27T04:36:25;20.77;;;3.80;;
19255;SDS011;9762;52.490;13.410;2024-01-27T04:38:54;17.03;;;3.73;;
19255;SDS011;9762;52.490;13.410;2024-01-27T04:41:20;22.33;;;4.30;;
19255;SDS011;9762;52.490;13.410;2024-01-27T04:43:46;15.87;;;3.73;;
19255;SDS011;9762;52.490;13.410;2024-01-27T04:46:11;17.53;;;4.07;;
19255;SDS011;9762;52.490;13.410;2024-01-27T04:48:37;14.30;;;4.13;;
19255;SDS011;9762;52.490;13.410;2024-01-27T04:51:03;17.70;;;4.30;;
19255;SDS011;9762;52.490;13.410;2024-01-27T04:53:28;17.00;;;3.70;;
19255;SDS011;9762;52.490;13.410;2024-01-27T04:55:54;15.73;;;4.00;;
19255;SDS011;9762;52.490;13.410;2024-01-27T04:58:19;11.43;;;3.67;;
19255;SDS011;9762;52.490;13.410;2024-01-27T05:00:45;14.33;;;4.10;;
19255;SDS011;9762;52.490;13.410;2024-01-27T05:03:11;19.67;;;3.90;;
19255;SDS011;9762;52.490;13.410;2024-01-27T05:05:42;15.10;;;4.20;;
19255;SDS011;9762;52.490;13.410;2024-01-27T05:08:08;21.27;;;4.30;;
19255;SDS011;9762;52.490;13.410;2024-01-27T05:10:34;17.33;;;3.80;;
19255;SDS011;9762;52.490;13.410;2024-01-27T05:13:01;19.30;;;4.60;;
19255;SDS011;9762;52.490;13.410;2024-01-27T05:15:27;16.80;;;3.83;;
19255;SDS011;9762;52.490;13.410;2024-01-27T05:17:53;17.47;;;3.77;;
19255;SDS011;9762;52.490;13.410;2024-01-27T05:20:19;18.90;;;4.37;;
19255;SDS011;9762;52.490;13.410;2024-01-27T05:22:44;18.83;;;3.93;;
19255;SDS011;9762;52.490;13.410;2024-01-27T05:25:10;19.07;;;4.30;;
19255;SDS011;9762;52.490;13.410;2024-01-27T05:27:37;19.50;;;4.03;;
19255;SDS011;9762;52.490;13.410;2024-01-27T05:30:03;21.70;;;3.90;;
19255;SDS011;9762;52.490;13.410;2024-01-27T05:32:30;13.23;;;3.43;;
19255;SDS011;9762;52.490;13.410;2024-01-27T05:34:56;15.87;;;4.73;;
19255;SDS011;9762;52.490;13.410;2024-01-27T05:37:22;15.53;;;4.20;;
19255;SDS011;9762;52.490;13.410;2024-01-27T05:39:47;15.20;;;4.20;;
19255;SDS011;9762;52.490;13.410;2024-01-27T05:42:13;17.90;;;3.57;;
19255;SDS011;9762;52.490;13.410;2024-01-27T05:44:38;16.70;;;4.20;;
19255;SDS011;9762;52.490;13.410;2024-01-27T05:47:05;19.17;;;4.20;;
19255;SDS011;9762;52.490;13.410;2024-01-27T05:49:31;15.93;;;4.37;;
19255;SDS011;9762;52.490;13.410;2024-01-27T05:51:57;11.33;;;3.70;;
19255;SDS011;9762;52.490;13.410;2024-01-27T05:54:23;13.17;;;3.60;;
19255;SDS011;9762;52.490;13.410;2024-01-27T05:56:49;15.67;;;3.53;;
19255;SDS011;9762;52.490;13.410;2024-01-27T05:59:15;17.73;;;3.87;;
19255;SDS011;9762;52.490;13.410;2024-01-27T06:01:41;19.20;;;4.13;;
19255;SDS011;9762;52.490;13.410;2024-01-27T06:04:08;12.27;;;3.80;;
19255;SDS011;9762;52.490;13.410;2024-01-27T06:06:34;14.73;;;3.50;;
19255;SDS011;9762;52.490;13.410;2024-01-27T06:09:02;15.60;;;3.40;;
19255;SDS011;9762;52.490;13.410;2024-01-27T06:11:29;14.67;;;3.83;;
19255;SDS011;9762;52.490;13.410;2024-01-27T06:13:55;17.80;;;4.27;;
19255;SDS011;9762;52.490;13.410;2024-01-27T06:16:21;17.70;;;3.73;;
19255;SDS011;9762;52.490;13.410;2024-01-27T06:18:48;14.53;;;3.77;;
19255;SDS011;9762;52.490;13.410;2024-01-27T06:21:14;12.90;;;3.80;;
19255;SDS011;9762;52.490;13.410;2024-01-27T06:23:39;15.80;;;3.63;;
19255;SDS011;9762;52.490;13.410;2024-01-27T06:26:06;21.57;;;4.40;;
19255;SDS011;9762;52.490;13.410;2024-01-27T06:28:32;17.70;;;3.87;;
19255;SDS011;9762;52.490;13.410;2024-01-27T06:30:57;22.13;;;4.20;;
19255;SDS011;9762;52.490;13.410;2024-01-27T06:33:23;15.97;;;4.07;;
19255;SDS011;9762;52.490;13.410;2024-01-27T06:35:49;16.10;;;3.77;;
19255;SDS011;9762;52.490;13.410;2024-01-27T06:38:14;19.47;;;4.40;;
19255;SDS011;9762;52.490;13.410;2024-01-27T06:40:40;17.60;;;4.27;;
19255;SDS011;9762;52.490;13.410;2024-01-27T06:43:06;13.10;;;3.27;;
19255;SDS011;9762;52.490;13.410;2024-01-27T06:45:31;24.47;;;4.47;;
19255;SDS011;9762;52.490;13.410;2024-01-27T06:47:57;16.47;;;3.60;;
19255;SDS011;9762;52.490;13.410;2024-01-27T06:50:22;13.97;;;3.40;;
19255;SDS011;9762;52.490;13.410;2024-01-27T06:52:48;19.57;;;4.17;;
19255;SDS011;9762;52.490;13.410;2024-01-27T06:55:14;16.23;;;3.57;;
19255;SDS011;9762;52.490;13.410;2024-01-27T06:57:39;14.03;;;3.97;;
19255;SDS011;9762;52.490;13.410;2024-01-27T07:00:06;17.53;;;3.83;;
19255;SDS011;9762;52.490;13.410;2024-01-27T07:02:32;23.17;;;4.47;;
19255;SDS011;9762;52.490;13.410;2024-01-27T07:04:57;16.77;;;3.60;;
19255;SDS011;9762;52.490;13.410;2024-01-27T07:07:27;13.97;;;3.93;;
19255;SDS011;9762;52.490;13.410;2024-01-27T07:09:56;14.93;;;4.03;;
19255;SDS011;9762;52.490;13.410;2024-01-27T07:12:22;18.90;;;4.47;;
19255;SDS011;9762;52.490;13.410;2024-01-27T07:14:48;19.87;;;3.93;;
19255;SDS011;9762;52.490;13.410;2024-01-27T07:17:14;18.70;;;4.30;;
19255;SDS011;9762;52.490;13.410;2024-01-27T07:19:40;12.03;;;4.10;;
19255;SDS011;9762;52.490;13.410;2024-01-27T07:22:06;17.53;;;4.53;;
19255;SDS011;9762;52.490;13.410;2024-01-27T07:24:31;21.10;;;4.47;;
19255;SDS011;9762;52.490;13.410;2024-01-27T07:26:59;11.07;;;3.93;;
19255;SDS011;9762;52.490;13.410;2024-01-27T07:29:25;16.80;;;4.20;;
19255;SDS011;9762;52.490;13.410;2024-01-27T07:31:51;22.27;;;4.80;;
19255;SDS011;9762;52.490;13.410;2024-01-27T07:34:17;16.53;;;3.83;;
19255;SDS011;9762;52.490;13.410;2024-01-27T07:36:43;17.03;;;4.27;;
19255;SDS011;9762;52.490;13.410;2024-01-27T07:39:09;19.17;;;3.83;;
19255;SDS011;9762;52.490;13.410;2024-01-27T07:41:34;23.47;;;4.33;;
19255;SDS011;9762;52.490;13.410;2024-01-27T07:44:07;15.17;;;4.13;;
19255;SDS011;9762;52.490;13.410;2024-01-27T07:46:34;15.80;;;3.83;;
19255;SDS011;9762;52.490;13.410;2024-01-27T07:49:01;17.90;;;4.03;;
19255;SDS011;9762;52.490;13.410;2024-01-27T07:51:28;22.47;;;4.77;;
19255;SDS011;9762;52.490;13.410;2024-01-27T07:53:53;15.53;;;3.87;;
19255;SDS011;9762;52.490;13.410;2024-01-27T07:56:19;20.80;;;5.00;;
19255;SDS011;9762;52.490;13.410;2024-01-27T07:58:44;21.50;;;3.77;;
19255;SDS011;9762;52.490;13.410;2024-01-27T08:01:10;23.53;;;4.67;;
19255;SDS011;9762;52.490;13.410;2024-01-27T08:03:39;20.93;;;4.73;;
19255;SDS011;9762;52.490;13.410;2024-01-27T08:06:05;15.23;;;4.20;;
19255;SDS011;9762;52.490;13.410;2024-01-27T08:08:34;28.40;;;8.17;;
19255;SDS011;9762;52.490;13.410;2024-01-27T08:10:59;13.93;;;4.03;;
19255;SDS011;9762;52.490;13.410;2024-01-27T08:13:25;20.80;;;3.90;;
19255;SDS011;9762;52.490;13.410;2024-01-27T08:15:51;19.57;;;4.07;;
19255;SDS011;9762;52.490;13.410;2024-01-27T08:18:16;17.60;;;4.27;;
19255;SDS011;9762;52.490;13.410;2024-01-27T08:20:42;11.80;;;3.47;;
19255;SDS011;9762;52.490;13.410;2024-01-27T08:23:07;26.63;;;5.17;;
19255;SDS011;9762;52.490;13.410;2024-01-27T08:25:34;16.53;;;4.03;;
19255;SDS011;9762;52.490;13.410;2024-01-27T08:28:00;21.40;;;4.23;;
19255;SDS011;9762;52.490;13.410;2024-01-27T08:30:25;21.60;;;5.57;;
19255;SDS011;9762;52.490;13.410;2024-01-27T08:32:51;16.00;;;4.40;;
19255;SDS011;9762;52.490;13.410;2024-01-27T08:35:16;12.77;;;4.07;;
19255;SDS011;9762;52.490;13.410;2024-01-27T08:37:42;22.00;;;4.90;;
19255;SDS011;9762;52.490;13.410;2024-01-27T08:40:08;13.97;;;3.70;;
19255;SDS011;9762;52.490;13.410;2024-01-27T08:42:33;15.27;;;3.77;;
19255;SDS011;9762;52.490;13.410;2024-01-27T08:44:59;16.83;;;4.00;;
19255;SDS011;9762;52.490;13.410;2024-01-27T08:47:25;17.60;;;3.60;;
19255;SDS011;9762;52.490;13.410;2024-01-27T08:49:50;14.40;;;3.40;;
19255;SDS011;9762;52.490;13.410;2024-01-27T08:52:16;22.37;;;3.77;;
19255;SDS011;9762;52.490;13.410;2024-01-27T08:54:42;13.13;;;4.10;;
19255;SDS011;9762;52.490;13.410;2024-01-27T08:57:08;14.60;;;4.50;;
19255;SDS011;9762;52.490;13.410;2024-01-27T08:59:33;14.20;;;4.37;;
19255;SDS011;9762;52.490;13.410;2024-01-27T09:02:00;14.17;;;3.80;;
19255;SDS011;9762;52.490;13.410;2024-01-27T09:04:26;18.00;;;4.00;;
19255;SDS011;9762;52.490;13.410;2024-01-27T09:06:52;19.40;;;4.60;;
19255;SDS011;9762;52.490;13.410;2024-01-27T09:09:18;18.97;;;3.97;;
19255;SDS011;9762;52.490;13.410;2024-01-27T09:11:43;21.13;;;3.93;;
19255;SDS011;9762;52.490;13.410;2024-01-27T09:14:11;17.67;;;3.70;;
19255;SDS011;9762;52.490;13.410;2024-01-27T09:16:36;23.27;;;4.97;;
19255;SDS011;9762;52.490;13.410;2024-01-27T09:19:02;20.77;;;4.73;;
19255;SDS011;9762;52.490;13.410;2024-01-27T09:21:28;17.63;;;4.50;;
19255;SDS011;9762;52.490;13.410;2024-01-27T09:23:55;18.70;;;4.60;;
19255;SDS011;9762;52.490;13.410;2024-01-27T09:26:22;19.60;;;4.47;;
19255;SDS011;9762;52.490;13.410;2024-01-27T09:28:48;17.23;;;4.67;;
19255;SDS011;9762;52.490;13.410;2024-01-27T09:31:21;19.40;;;4.30;;
19255;SDS011;9762;52.490;13.410;2024-01-27T09:33:48;17.17;;;4.00;;
19255;SDS011;9762;52.490;13.410;2024-01-27T09:36:18;9.67;;;3.33;;
19255;SDS011;9762;52.490;13.410;2024-01-27T09:38:44;18.93;;;3.47;;
19255;SDS011;9762;52.490;13.410;2024-01-27T09:41:11;22.37;;;4.23;;
19255;SDS011;9762;52.490;13.410;2024-01-27T09:43:40;16.30;;;4.30;;
19255;SDS011;9762;52.490;13.410;2024-01-27T09:46:09;14.07;;;3.60;;
19255;SDS011;9762;52.490;13.410;2024-01-27T09:48:44;15.33;;;3.93;;
19255;SDS011;9762;52.490;13.410;2024-01-27T09:51:10;22.17;;;4.13;;
19255;SDS011;9762;52.490;13.410;2024-01-27T09:53:36;20.37;;;3.80;;
19255;SDS011;9762;52.490;13.410;2024-01-27T09:56:02;15.60;;;4.17;;
19255;SDS011;9762;52.490;13.410;2024-01-27T09:58:29;16.60;;;3.77;;
19255;SDS011;9762;52.490;13.410;2024-01-27T10:00:56;18.60;;;3.80;;
19255;SDS011;9762;52.490;13.410;2024-01-27T10:03:25;16.10;;;4.00;;
19255;SDS011;9762;52.490;13.410;2024-01-27T10:05:52;16.67;;;4.53;;
19255;SDS011;9762;52.490;13.410;2024-01-27T10:08:20;14.00;;;3.93;;
19255;SDS011;9762;52.490;13.410;2024-01-27T10:10:46;13.27;;;3.77;;
19255;SDS011;9762;52.490;13.410;2024-01-27T10:13:13;20.00;;;4.23;;
19255;SDS011;9762;52.490;13.410;2024-01-27T10:15:41;17.13;;;4.53;;
19255;SDS011;9762;52.490;13.410;2024-01-27T10:18:07;20.83;;;4.07;;
19255;SDS011;9762;52.490;13.410;2024-01-27T10:20:34;15.70;;;3.83;;
19255;SDS011;9762;52.490;13.410;2024-01-27T10:22:59;18.77;;;4.40;;
19255;SDS011;9762;52.490;13.410;2024-01-27T10:25:39;18.87;;;4.23;;
19255;SDS011;9762;52.490;13.410;2024-01-27T10:28:09;20.23;;;4.40;;
19255;SDS011;9762;52.490;13.410;2024-01-27T10:30:35;10.47;;;3.50;;
19255;SDS011;9762;52.490;13.410;2024-01-27T10:33:01;19.77;;;4.40;;
19255;SDS011;9762;52.490;13.410;2024-01-27T10:35:27;14.67;;;4.23;;
19255;SDS011;9762;52.490;13.410;2024-01-27T10:37:53;25.40;;;4.40;;
19255;SDS011;9762;52.490;13.410;2024-01-27T10:40:20;16.83;;;4.37;;
19255;SDS011;9762;52.490;13.410;2024-01-27T10:42:46;19.97;;;4.37;;
19255;SDS011;9762;52.490;13.410;2024-01-27T10:45:15;18.87;;;4.47;;
19255;SDS011;9762;52.490;13.410;2024-01-27T10:47:43;12.90;;;3.63;;
19255;SDS011;9762;52.490;13.410;2024-01-27T10:50:10;12.17;;;3.63;;
19255;SDS011;9762;52.490;13.410;2024-01-27T10:52:39;14.93;;;3.77;;
19255;SDS011;9762;52.490;13.410;2024-01-27T10:55:08;18.10;;;4.33;;
19255;SDS011;9762;52.490;13.410;2024-01-27T10:57:36;16.93;;;3.80;;
19255;SDS011;9762;52.490;13.410;2024-01-27T11:00:03;18.40;;;4.07;;
19255;SDS011;9762;52.490;13.410;2024-01-27T11:02:35;13.37;;;3.93;;
19255;SDS011;9762;52.490;13.410;2024-01-27T11:05:04;30.17;;;4.67;;
19255;SDS011;9762;52.490;13.410;2024-01-27T11:07:33;17.93;;;4.53;;
19255;SDS011;9762;52.490;13.410;2024-01-27T11:09:59;17.93;;;5.10;;
19255;SDS011;9762;52.490;13.410;2024-01-27T11:12:25;22.47;;;7.70;;
19255;SDS011;9762;52.490;13.410;2024-01-27T11:14:52;29.37;;;15.07;;
19255;SDS011;9762;52.490;13.410;2024-01-27T11:17:18;30.07;;;14.00;;
19255;SDS011;9762;52.490;13.410;2024-01-27T11:19:44;27.17;;;12.60;;
19255;SDS011;9762;52.490;13.410;2024-01-27T11:22:24;17.17;;;7.73;;
19255;SDS011;9762;52.490;13.410;2024-01-27T11:24:51;25.20;;;6.30;;
19255;SDS011;9762;52.490;13.410;2024-01-27T11:27:34;15.13;;;4.77;;
19255;SDS011;9762;52.490;13.410;2024-01-27T11:30:00;20.90;;;6.80;;
19255;SDS011;9762;52.490;13.410;2024-01-27T11:32:26;17.70;;;5.43;;
19255;SDS011;9762;52.490;13.410;2024-01-27T11:34:52;25.17;;;8.30;;
19255;SDS011;9762;52.490;13.410;2024-01-27T11:37:18;19.63;;;6.00;;
19255;SDS011;9762;52.490;13.410;2024-01-27T11:39:50;15.67;;;5.10;;
19255;SDS011;9762;52.490;13.410;2024-01-27T11:42:17;18.07;;;5.80;;
19255;SDS011;9762;52.490;13.410;2024-01-27T11:44:42;22.17;;;5.53;;
19255;SDS011;9762;52.490;13.410;2024-01-27T11:47:19;21.00;;;5.77;;
19255;SDS011;9762;52.490;13.410;2024-01-27T11:49:54;19.23;;;5.37;;
19255;SDS011;9762;52.490;13.410;2024-01-27T11:52:22;15.70;;;4.73;;
19255;SDS011;9762;52.490;13.410;2024-01-27T11:54:55;19.87;;;5.67;;
19255;SDS011;9762;52.490;13.410;2024-01-27T11:57:21;18.80;;;5.60;;
19255;SDS011;9762;52.490;13.410;2024-01-27T11:59:47;20.80;;;5.17;;
19255;SDS011;9762;52.490;13.410;2024-01-27T12:02:13;20.70;;;5.37;;
19255;SDS011;9762;52.490;13.410;2024-01-27T12:04:39;20.43;;;5.63;;
19255;SDS011;9762;52.490;13.410;2024-01-27T12:07:05;18.37;;;5.80;;
19255;SDS011;9762;52.490;13.410;2024-01-27T12:09:32;14.67;;;4.93;;
19255;SDS011;9762;52.490;13.410;2024-01-27T12:11:57;16.83;;;4.97;;
19255;SDS011;9762;52.490;13.410;2024-01-27T12:14:23;17.73;;;4.83;;
19255;SDS011;9762;52.490;13.410;2024-01-27T12:16:50;17.83;;;4.63;;
19255;SDS011;9762;52.490;13.410;2024-01-27T12:19:16;18.57;;;4.97;;
19255;SDS011;9762;52.490;13.410;2024-01-27T12:21:48;17.63;;;4.83;;
19255;SDS011;9762;52.490;13.410;2024-01-27T12:24:17;13.70;;;4.17;;
19255;SDS011;9762;52.490;13.410;2024-01-27T12:26:43;14.50;;;4.83;;
19255;SDS011;9762;52.490;13.410;2024-01-27T12:29:09;47.93;;;20.93;;
19255;SDS011;9762;52.490;13.410;2024-01-27T12:31:35;25.30;;;9.20;;
19255;SDS011;9762;52.490;13.410;2024-01-27T12:34:02;16.27;;;6.27;;
19255;SDS011;9762;52.490;13.410;2024-01-27T12:36:28;18.33;;;5.30;;
19255;SDS011;9762;52.490;13.410;2024-01-27T12:41:24;11.33;;;4.40;;
19255;SDS011;9762;52.490;13.410;2024-01-27T12:43:54;15.87;;;4.47;;
19255;SDS011;9762;52.490;13.410;2024-01-27T12:46:20;22.47;;;5.27;;
19255;SDS011;9762;52.490;13.410;2024-01-27T12:48:46;17.93;;;5.27;;
19255;SDS011;9762;52.490;13.410;2024-01-27T12:51:12;12.33;;;6.07;;
19255;SDS011;9762;52.490;13.410;2024-01-27T12:53:39;14.43;;;5.73;;
19255;SDS011;9762;52.490;13.410;2024-01-27T12:56:09;17.13;;;5.00;;
19255;SDS011;9762;52.490;13.410;2024-01-27T12:58:36;14.53;;;4.60;;
19255;SDS011;9762;52.490;13.410;2024-01-27T13:01:02;20.90;;;4.70;;
19255;SDS011;9762;52.490;13.410;2024-01-27T13:03:28;20.60;;;5.67;;
19255;SDS011;9762;52.490;13.410;2024-01-27T13:05:54;11.33;;;4.40;;
19255;SDS011;9762;52.490;13.410;2024-01-27T13:08:21;12.17;;;4.60;;
19255;SDS011;9762;52.490;13.410;2024-01-27T13:10:47;15.43;;;4.70;;
19255;SDS011;9762;52.490;13.410;2024-01-27T13:13:13;52.53;;;16.57;;
19255;SDS011;9762;52.490;13.410;2024-01-27T13:15:38;80.40;;;28.43;;
19255;SDS011;9762;52.490;13.410;2024-01-27T13:18:04;95.40;;;27.07;;
19255;SDS011;9762;52.490;13.410;2024-01-27T13:20:30;50.77;;;14.50;;
19255;SDS011;9762;52.490;13.410;2024-01-27T13:22:57;113.63;;;28.93;;
19255;SDS011;9762;52.490;13.410;2024-01-27T13:25:23;85.07;;;22.80;;
19255;SDS011;9762;52.490;13.410;2024-01-27T13:27:49;115.33;;;33.17;;
19255;SDS011;9762;52.490;13.410;2024-01-27T13:30:15;81.70;;;23.43;;
19255;SDS011;9762;52.490;13.410;2024-01-27T13:32:42;76.93;;;20.87;;
19255;SDS011;9762;52.490;13.410;2024-01-27T13:35:09;91.00;;;24.70;;
19255;SDS011;9762;52.490;13.410;2024-01-27T13:37:35;47.00;;;14.90;;
19255;SDS011;9762;52.490;13.410;2024-01-27T13:40:02;28.40;;;9.00;;
19255;SDS011;9762;52.490;13.410;2024-01-27T13:42:29;43.50;;;13.57;;
19255;SDS011;9762;52.490;13.410;2024-01-27T13:44:55;65.53;;;17.83;;
19255;SDS011;9762;52.490;13.410;2024-01-27T13:47:20;65.00;;;18.27;;
19255;SDS011;9762;52.490;13.410;2024-01-27T13:49:46;75.67;;;22.87;;
19255;SDS011;9762;52.490;13.410;2024-01-27T13:52:12;71.83;;;22.20;;
19255;SDS011;9762;52.490;13.410;2024-01-27T13:54:38;46.63;;;14.60;;
19255;SDS011;9762;52.490;13.410;2024-01-27T13:57:04;25.93;;;8.17;;
19255;SDS011;9762;52.490;13.410;2024-01-27T13:59:29;19.40;;;6.00;;
19255;SDS011;9762;52.490;13.410;2024-01-27T14:01:56;22.73;;;6.20;;
19255;SDS011;9762;52.490;13.410;2024-01-27T14:04:24;18.23;;;5.03;;
19255;SDS011;9762;52.490;13.410;2024-01-27T14:06:53;17.30;;;4.57;;
19255;SDS011;9762;52.490;13.410;2024-01-27T14:09:20;13.57;;;4.90;;
19255;SDS011;9762;52.490;13.410;2024-01-27T14:11:46;16.07;;;4.80;;
19255;SDS011;9762;52.490;13.410;2024-01-27T14:14:12;17.13;;;5.50;;
19255;SDS011;9762;52.490;13.410;2024-01-27T14:16:37;16.20;;;5.03;;
19255;SDS011;9762;52.490;13.410;2024-01-27T14:19:03;18.17;;;5.10;;
19255;SDS011;9762;52.490;13.410;2024-01-27T14:21:29;20.03;;;4.90;;
19255;SDS011;9762;52.490;13.410;2024-01-27T14:23:54;16.23;;;5.03;;
19255;SDS011;9762;52.490;13.410;2024-01-27T14:26:26;18.80;;;5.37;;
19255;SDS011;9762;52.490;13.410;2024-01-27T14:28:53;11.60;;;4.60;;
19255;SDS011;9762;52.490;13.410;2024-01-27T14:31:19;18.87;;;4.87;;